sensor_id;sensor_type;location;lat;lon;timestamp;P1;P2;P0
76661;PMS5003;65579;45.534;6.212;2023-04-03T00:00:06;3;3;
76661;PMS5003;65579;45.534;6.212;2023-04-03T00:02:31;3;3;
76661;PMS5003;65579;45.534;6.212;2023-04-03T00:04:56;4;4;
76661;PMS5003;65579;45.534;6.212;2023-04-03T00:07:21;3;3;
76661;PMS5003;65579;45.534;6.212;2023-04-03T00:09:46;4;4;
76661;PMS5003;65579;45.534;6.212;2023-04-03T00:12:12;4;3;
76661;PMS5003;65579;45.534;6.212;2023-04-03T00:14:37;4;4;
76661;PMS5003;65579;45.534;6.212;2023-04-03T00:17:02;4;4;
76661;PMS5003;65579;45.534;6.212;2023-04-03T00:19:28;6;3;
76661;PMS5003;65579;45.534;6.212;2023-04-03T00:21:53;2;2;
76661;PMS5003;65579;45.534;6.212;2023-04-03T00:24:18;4;2;
76661;PMS5003;65579;45.534;6.212;2023-04-03T00:26:44;5;5;
76661;PMS5003;65579;45.534;6.212;2023-04-03T00:29:09;6;6;
76661;PMS5003;65579;45.534;6.212;2023-04-03T00:31:34;4;4;
76661;PMS5003;65579;45.534;6.212;2023-04-03T00:33:59;6;6;
76661;PMS5003;65579;45.534;6.212;2023-04-03T00:36:25;5;5;
76661;PMS5003;65579;45.534;6.212;2023-04-03T00:38:50;4;4;
76661;PMS5003;65579;45.534;6.212;2023-04-03T00:41:15;5;2;
76661;PMS5003;65579;45.534;6.212;2023-04-03T00:43:41;4;4;
76661;PMS5003;65579;45.534;6.212;2023-04-03T00:46:06;5;5;
76661;PMS5003;65579;45.534;6.212;2023-04-03T00:48:32;7;7;
76661;PMS5003;65579;45.534;6.212;2023-04-03T00:50:57;9;8;
76661;PMS5003;65579;45.534;6.212;2023-04-03T00:53:23;6;6;
76661;PMS5003;65579;45.534;6.212;2023-04-03T00:55:47;5;5;
76661;PMS5003;65579;45.534;6.212;2023-04-03T00:58:12;6;6;
76661;PMS5003;65579;45.534;6.212;2023-04-03T01:00:38;7;7;
76661;PMS5003;65579;45.534;6.212;2023-04-03T01:03:03;5;5;
76661;PMS5003;65579;45.534;6.212;2023-04-03T01:05:28;9;7;
76661;PMS5003;65579;45.534;6.212;2023-04-03T01:07:54;4;4;
76661;PMS5003;65579;45.534;6.212;2023-04-03T01:10:19;5;5;
76661;PMS5003;65579;45.534;6.212;2023-04-03T01:12:45;6;6;
76661;PMS5003;65579;45.534;6.212;2023-04-03T01:15:11;6;6;
76661;PMS5003;65579;45.534;6.212;2023-04-03T01:17:36;7;5;
76661;PMS5003;65579;45.534;6.212;2023-04-03T01:20:21;5;5;
76661;PMS5003;65579;45.534;6.212;2023-04-03T01:22:25;7;6;
76661;PMS5003;65579;45.534;6.212;2023-04-03T01:24:51;8;6;
76661;PMS5003;65579;45.534;6.212;2023-04-03T01:27:16;6;6;
76661;PMS5003;65579;45.534;6.212;2023-04-03T01:29:41;8;8;
76661;PMS5003;65579;45.534;6.212;2023-04-03T01:32:07;6;6;
76661;PMS5003;65579;45.534;6.212;2023-04-03T01:34:32;8;6;
76661;PMS5003;65579;45.534;6.212;2023-04-03T01:36:57;7;7;
76661;PMS5003;65579;45.534;6.212;2023-04-03T01:39:23;7;7;
76661;PMS5003;65579;45.534;6.212;2023-04-03T01:41:48;6;6;
76661;PMS5003;65579;45.534;6.212;2023-04-03T01:44:14;7;6;
76661;PMS5003;65579;45.534;6.212;2023-04-03T01:46:39;8;4;
76661;PMS5003;65579;45.534;6.212;2023-04-03T01:49:04;5;5;
76661;PMS5003;65579;45.534;6.212;2023-04-03T01:51:30;5;5;
76661;PMS5003;65579;45.534;6.212;2023-04-03T01:53:55;10;8;
76661;PMS5003;65579;45.534;6.212;2023-04-03T01:56:21;8;8;
76661;PMS5003;65579;45.534;6.212;2023-04-03T01:58:46;5;5;
76661;PMS5003;65579;45.534;6.212;2023-04-03T02:01:12;6;6;
76661;PMS5003;65579;45.534;6.212;2023-04-03T02:03:37;4;4;
76661;PMS5003;65579;45.534;6.212;2023-04-03T02:06:02;5;4;
76661;PMS5003;65579;45.534;6.212;2023-04-03T02:08:27;8;7;
76661;PMS5003;65579;45.534;6.212;2023-04-03T02:10:53;4;4;
76661;PMS5003;65579;45.534;6.212;2023-04-03T02:13:18;7;7;
76661;PMS5003;65579;45.534;6.212;2023-04-03T02:15:43;6;5;
76661;PMS5003;65579;45.534;6.212;2023-04-03T02:18:09;6;4;
76661;PMS5003;65579;45.534;6.212;2023-04-03T02:20:34;4;4;
76661;PMS5003;65579;45.534;6.212;2023-04-03T02:23:00;5;5;
76661;PMS5003;65579;45.534;6.212;2023-04-03T02:25:25;4;4;
76661;PMS5003;65579;45.534;6.212;2023-04-03T02:27:51;6;6;
76661;PMS5003;65579;45.534;6.212;2023-04-03T02:30:16;5;5;
76661;PMS5003;65579;45.534;6.212;2023-04-03T02:32:41;5;5;
76661;PMS5003;65579;45.534;6.212;2023-04-03T02:35:07;7;5;
76661;PMS5003;65579;45.534;6.212;2023-04-03T02:37:32;9;9;
76661;PMS5003;65579;45.534;6.212;2023-04-03T02:39:58;5;5;
76661;PMS5003;65579;45.534;6.212;2023-04-03T02:42:23;6;6;
76661;PMS5003;65579;45.534;6.212;2023-04-03T02:44:48;6;5;
76661;PMS5003;65579;45.534;6.212;2023-04-03T02:47:14;9;9;
76661;PMS5003;65579;45.534;6.212;2023-04-03T02:49:40;5;5;
76661;PMS5003;65579;45.534;6.212;2023-04-03T02:52:05;5;4;
76661;PMS5003;65579;45.534;6.212;2023-04-03T02:54:30;6;6;
76661;PMS5003;65579;45.534;6.212;2023-04-03T02:56:56;4;4;
76661;PMS5003;65579;45.534;6.212;2023-04-03T02:59:21;6;5;
76661;PMS5003;65579;45.534;6.212;2023-04-03T03:01:46;8;8;
76661;PMS5003;65579;45.534;6.212;2023-04-03T03:04:12;5;5;
76661;PMS5003;65579;45.534;6.212;2023-04-03T03:06:38;8;8;
76661;PMS5003;65579;45.534;6.212;2023-04-03T03:09:03;7;6;
76661;PMS5003;65579;45.534;6.212;2023-04-03T03:11:28;6;6;
76661;PMS5003;65579;45.534;6.212;2023-04-03T03:13:53;7;5;
76661;PMS5003;65579;45.534;6.212;2023-04-03T03:16:19;7;7;
76661;PMS5003;65579;45.534;6.212;2023-04-03T03:18:44;9;8;
76661;PMS5003;65579;45.534;6.212;2023-04-03T03:21:10;7;7;
76661;PMS5003;65579;45.534;6.212;2023-04-03T03:23:36;6;6;
76661;PMS5003;65579;45.534;6.212;2023-04-03T03:26:02;5;5;
76661;PMS5003;65579;45.534;6.212;2023-04-03T03:28:26;6;6;
76661;PMS5003;65579;45.534;6.212;2023-04-03T03:30:52;7;5;
76661;PMS5003;65579;45.534;6.212;2023-04-03T03:33:17;11;11;
76661;PMS5003;65579;45.534;6.212;2023-04-03T03:35:43;10;9;
76661;PMS5003;65579;45.534;6.212;2023-04-03T03:38:09;8;8;
76661;PMS5003;65579;45.534;6.212;2023-04-03T03:40:35;12;11;
76661;PMS5003;65579;45.534;6.212;2023-04-03T03:43:00;10;10;
76661;PMS5003;65579;45.534;6.212;2023-04-03T03:45:25;10;10;
76661;PMS5003;65579;45.534;6.212;2023-04-03T03:47:51;9;9;
76661;PMS5003;65579;45.534;6.212;2023-04-03T03:50:16;8;8;
76661;PMS5003;65579;45.534;6.212;2023-04-03T03:52:41;7;7;
76661;PMS5003;65579;45.534;6.212;2023-04-03T03:55:07;12;10;
76661;PMS5003;65579;45.534;6.212;2023-04-03T03:57:33;8;8;
76661;PMS5003;65579;45.534;6.212;2023-04-03T03:59:59;4;4;
76661;PMS5003;65579;45.534;6.212;2023-04-03T04:02:24;9;8;
76661;PMS5003;65579;45.534;6.212;2023-04-03T04:04:50;4;4;
76661;PMS5003;65579;45.534;6.212;2023-04-03T04:07:15;5;5;
76661;PMS5003;65579;45.534;6.212;2023-04-03T04:09:41;5;5;
76661;PMS5003;65579;45.534;6.212;2023-04-03T04:12:06;7;7;
76661;PMS5003;65579;45.534;6.212;2023-04-03T04:14:31;8;8;
76661;PMS5003;65579;45.534;6.212;2023-04-03T04:16:56;10;10;
76661;PMS5003;65579;45.534;6.212;2023-04-03T04:19:23;9;9;
76661;PMS5003;65579;45.534;6.212;2023-04-03T04:21:48;10;10;
76661;PMS5003;65579;45.534;6.212;2023-04-03T04:24:13;10;8;
76661;PMS5003;65579;45.534;6.212;2023-04-03T04:26:38;9;8;
76661;PMS5003;65579;45.534;6.212;2023-04-03T04:29:04;7;7;
76661;PMS5003;65579;45.534;6.212;2023-04-03T04:31:29;8;6;
76661;PMS5003;65579;45.534;6.212;2023-04-03T04:33:54;11;9;
76661;PMS5003;65579;45.534;6.212;2023-04-03T04:36:20;11;8;
76661;PMS5003;65579;45.534;6.212;2023-04-03T04:38:45;8;8;
76661;PMS5003;65579;45.534;6.212;2023-04-03T04:41:11;10;10;
76661;PMS5003;65579;45.534;6.212;2023-04-03T04:43:36;7;7;
76661;PMS5003;65579;45.534;6.212;2023-04-03T04:46:02;7;7;
76661;PMS5003;65579;45.534;6.212;2023-04-03T04:48:27;9;7;
76661;PMS5003;65579;45.534;6.212;2023-04-03T04:50:52;5;5;
76661;PMS5003;65579;45.534;6.212;2023-04-03T04:53:17;7;6;
76661;PMS5003;65579;45.534;6.212;2023-04-03T04:55:43;7;6;
76661;PMS5003;65579;45.534;6.212;2023-04-03T04:58:08;9;8;
76661;PMS5003;65579;45.534;6.212;2023-04-03T05:00:33;6;6;
76661;PMS5003;65579;45.534;6.212;2023-04-03T05:02:59;8;5;
76661;PMS5003;65579;45.534;6.212;2023-04-03T05:05:24;5;5;
76661;PMS5003;65579;45.534;6.212;2023-04-03T05:07:49;7;7;
76661;PMS5003;65579;45.534;6.212;2023-04-03T05:10:15;8;8;
76661;PMS5003;65579;45.534;6.212;2023-04-03T05:12:40;9;8;
76661;PMS5003;65579;45.534;6.212;2023-04-03T05:15:06;8;7;
76661;PMS5003;65579;45.534;6.212;2023-04-03T05:17:31;11;10;
76661;PMS5003;65579;45.534;6.212;2023-04-03T05:19:56;9;9;
76661;PMS5003;65579;45.534;6.212;2023-04-03T05:22:21;10;9;
76661;PMS5003;65579;45.534;6.212;2023-04-03T05:24:46;11;10;
76661;PMS5003;65579;45.534;6.212;2023-04-03T05:27:11;9;9;
76661;PMS5003;65579;45.534;6.212;2023-04-03T05:29:37;19;19;
76661;PMS5003;65579;45.534;6.212;2023-04-03T05:32:02;15;14;
76661;PMS5003;65579;45.534;6.212;2023-04-03T05:34:28;17;15;
76661;PMS5003;65579;45.534;6.212;2023-04-03T05:36:53;11;10;
76661;PMS5003;65579;45.534;6.212;2023-04-03T05:39:19;9;9;
76661;PMS5003;65579;45.534;6.212;2023-04-03T05:41:44;9;9;
76661;PMS5003;65579;45.534;6.212;2023-04-03T05:44:10;10;10;
76661;PMS5003;65579;45.534;6.212;2023-04-03T05:46:35;9;9;
76661;PMS5003;65579;45.534;6.212;2023-04-03T05:49:01;12;10;
76661;PMS5003;65579;45.534;6.212;2023-04-03T05:51:28;12;12;
76661;PMS5003;65579;45.534;6.212;2023-04-03T05:53:52;13;10;
76661;PMS5003;65579;45.534;6.212;2023-04-03T05:56:17;11;11;
76661;PMS5003;65579;45.534;6.212;2023-04-03T05:58:42;11;11;
76661;PMS5003;65579;45.534;6.212;2023-04-03T06:01:08;12;12;
76661;PMS5003;65579;45.534;6.212;2023-04-03T06:03:33;20;20;
76661;PMS5003;65579;45.534;6.212;2023-04-03T06:06:00;19;19;
76661;PMS5003;65579;45.534;6.212;2023-04-03T06:08:24;24;22;
76661;PMS5003;65579;45.534;6.212;2023-04-03T06:10:49;18;15;
76661;PMS5003;65579;45.534;6.212;2023-04-03T06:13:14;15;15;
76661;PMS5003;65579;45.534;6.212;2023-04-03T06:15:40;15;14;
76661;PMS5003;65579;45.534;6.212;2023-04-03T06:18:05;11;11;
76661;PMS5003;65579;45.534;6.212;2023-04-03T06:20:30;11;10;
76661;PMS5003;65579;45.534;6.212;2023-04-03T06:22:56;13;13;
76661;PMS5003;65579;45.534;6.212;2023-04-03T06:25:21;9;9;
76661;PMS5003;65579;45.534;6.212;2023-04-03T06:27:46;10;10;
76661;PMS5003;65579;45.534;6.212;2023-04-03T06:30:12;11;11;
76661;PMS5003;65579;45.534;6.212;2023-04-03T06:32:38;10;10;
76661;PMS5003;65579;45.534;6.212;2023-04-03T06:35:04;8;8;
76661;PMS5003;65579;45.534;6.212;2023-04-03T06:37:29;15;15;
76661;PMS5003;65579;45.534;6.212;2023-04-03T06:39:54;13;11;
76661;PMS5003;65579;45.534;6.212;2023-04-03T06:42:20;11;11;
76661;PMS5003;65579;45.534;6.212;2023-04-03T06:44:45;15;15;
76661;PMS5003;65579;45.534;6.212;2023-04-03T06:47:11;12;12;
76661;PMS5003;65579;45.534;6.212;2023-04-03T06:49:36;14;14;
76661;PMS5003;65579;45.534;6.212;2023-04-03T06:52:01;12;12;
76661;PMS5003;65579;45.534;6.212;2023-04-03T06:54:26;15;15;
76661;PMS5003;65579;45.534;6.212;2023-04-03T06:56:51;17;17;
76661;PMS5003;65579;45.534;6.212;2023-04-03T06:59:17;13;13;
76661;PMS5003;65579;45.534;6.212;2023-04-03T07:01:43;14;13;
76661;PMS5003;65579;45.534;6.212;2023-04-03T07:04:08;12;12;
76661;PMS5003;65579;45.534;6.212;2023-04-03T07:06:33;12;10;
76661;PMS5003;65579;45.534;6.212;2023-04-03T07:08:59;12;12;
76661;PMS5003;65579;45.534;6.212;2023-04-03T07:11:24;9;9;
76661;PMS5003;65579;45.534;6.212;2023-04-03T07:13:49;12;11;
76661;PMS5003;65579;45.534;6.212;2023-04-03T07:16:14;12;10;
76661;PMS5003;65579;45.534;6.212;2023-04-03T07:18:40;11;10;
76661;PMS5003;65579;45.534;6.212;2023-04-03T07:21:05;12;11;
76661;PMS5003;65579;45.534;6.212;2023-04-03T07:23:31;12;10;
76661;PMS5003;65579;45.534;6.212;2023-04-03T07:25:56;11;9;
76661;PMS5003;65579;45.534;6.212;2023-04-03T07:28:22;14;11;
76661;PMS5003;65579;45.534;6.212;2023-04-03T07:30:48;11;11;
76661;PMS5003;65579;45.534;6.212;2023-04-03T07:33:14;9;9;
76661;PMS5003;65579;45.534;6.212;2023-04-03T07:35:40;10;10;
76661;PMS5003;65579;45.534;6.212;2023-04-03T07:38:04;14;14;
76661;PMS5003;65579;45.534;6.212;2023-04-03T07:40:29;11;11;
76661;PMS5003;65579;45.534;6.212;2023-04-03T07:42:55;11;11;
76661;PMS5003;65579;45.534;6.212;2023-04-03T07:45:20;10;10;
76661;PMS5003;65579;45.534;6.212;2023-04-03T07:47:46;10;10;
76661;PMS5003;65579;45.534;6.212;2023-04-03T07:50:12;10;10;
76661;PMS5003;65579;45.534;6.212;2023-04-03T07:52:38;9;9;
76661;PMS5003;65579;45.534;6.212;2023-04-03T07:55:03;9;9;
76661;PMS5003;65579;45.534;6.212;2023-04-03T07:57:28;10;10;
76661;PMS5003;65579;45.534;6.212;2023-04-03T07:59:53;11;11;
76661;PMS5003;65579;45.534;6.212;2023-04-03T08:02:18;11;11;
76661;PMS5003;65579;45.534;6.212;2023-04-03T08:04:44;12;12;
76661;PMS5003;65579;45.534;6.212;2023-04-03T08:07:09;14;14;
76661;PMS5003;65579;45.534;6.212;2023-04-03T08:09:34;9;9;
76661;PMS5003;65579;45.534;6.212;2023-04-03T08:11:59;10;10;
76661;PMS5003;65579;45.534;6.212;2023-04-03T08:14:25;8;8;
76661;PMS5003;65579;45.534;6.212;2023-04-03T08:16:50;11;9;
76661;PMS5003;65579;45.534;6.212;2023-04-03T08:19:16;13;11;
76661;PMS5003;65579;45.534;6.212;2023-04-03T08:21:41;8;8;
76661;PMS5003;65579;45.534;6.212;2023-04-03T08:24:07;9;9;
76661;PMS5003;65579;45.534;6.212;2023-04-03T08:26:32;8;8;
76661;PMS5003;65579;45.534;6.212;2023-04-03T08:28:57;10;10;
76661;PMS5003;65579;45.534;6.212;2023-04-03T08:31:22;10;10;
76661;PMS5003;65579;45.534;6.212;2023-04-03T08:33:47;8;8;
76661;PMS5003;65579;45.534;6.212;2023-04-03T08:36:17;7;7;
76661;PMS5003;65579;45.534;6.212;2023-04-03T08:38:38;9;9;
76661;PMS5003;65579;45.534;6.212;2023-04-03T08:41:05;8;8;
76661;PMS5003;65579;45.534;6.212;2023-04-03T08:43:31;8;8;
76661;PMS5003;65579;45.534;6.212;2023-04-03T08:45:55;10;10;
76661;PMS5003;65579;45.534;6.212;2023-04-03T08:48:20;9;7;
76661;PMS5003;65579;45.534;6.212;2023-04-03T08:50:46;8;8;
76661;PMS5003;65579;45.534;6.212;2023-04-03T08:53:11;9;8;
76661;PMS5003;65579;45.534;6.212;2023-04-03T08:55:37;9;9;
76661;PMS5003;65579;45.534;6.212;2023-04-03T08:58:01;10;9;
76661;PMS5003;65579;45.534;6.212;2023-04-03T09:00:26;9;7;
76661;PMS5003;65579;45.534;6.212;2023-04-03T09:02:52;7;7;
76661;PMS5003;65579;45.534;6.212;2023-04-03T09:05:17;8;8;
76661;PMS5003;65579;45.534;6.212;2023-04-03T09:07:42;9;8;
76661;PMS5003;65579;45.534;6.212;2023-04-03T09:10:07;8;8;
76661;PMS5003;65579;45.534;6.212;2023-04-03T09:12:34;8;8;
76661;PMS5003;65579;45.534;6.212;2023-04-03T09:14:58;8;8;
76661;PMS5003;65579;45.534;6.212;2023-04-03T09:17:24;10;8;
76661;PMS5003;65579;45.534;6.212;2023-04-03T09:19:49;5;5;
76661;PMS5003;65579;45.534;6.212;2023-04-03T09:22:14;7;7;
76661;PMS5003;65579;45.534;6.212;2023-04-03T09:24:38;7;7;
76661;PMS5003;65579;45.534;6.212;2023-04-03T09:27:04;8;7;
76661;PMS5003;65579;45.534;6.212;2023-04-03T09:29:29;7;7;
76661;PMS5003;65579;45.534;6.212;2023-04-03T09:31:56;3;3;
76661;PMS5003;65579;45.534;6.212;2023-04-03T09:34:20;2;2;
76661;PMS5003;65579;45.534;6.212;2023-04-03T09:36:45;4;4;
76661;PMS5003;65579;45.534;6.212;2023-04-03T09:39:10;2;2;
76661;PMS5003;65579;45.534;6.212;2023-04-03T09:41:34;4;4;
76661;PMS5003;65579;45.534;6.212;2023-04-03T09:44:00;4;4;
76661;PMS5003;65579;45.534;6.212;2023-04-03T09:46:28;8;8;
76661;PMS5003;65579;45.534;6.212;2023-04-03T09:48:51;10;7;
76661;PMS5003;65579;45.534;6.212;2023-04-03T09:51:15;9;9;
76661;PMS5003;65579;45.534;6.212;2023-04-03T09:53:41;10;8;
76661;PMS5003;65579;45.534;6.212;2023-04-03T09:56:18;6;6;
76661;PMS5003;65579;45.534;6.212;2023-04-03T09:58:31;7;6;
76661;PMS5003;65579;45.534;6.212;2023-04-03T10:00:57;6;6;
76661;PMS5003;65579;45.534;6.212;2023-04-03T10:03:23;4;4;
76661;PMS5003;65579;45.534;6.212;2023-04-03T10:05:46;5;5;
76661;PMS5003;65579;45.534;6.212;2023-04-03T10:10:37;2;2;
76661;PMS5003;65579;45.534;6.212;2023-04-03T10:13:04;6;6;
76661;PMS5003;65579;45.534;6.212;2023-04-03T10:15:27;6;5;
76661;PMS5003;65579;45.534;6.212;2023-04-03T10:17:54;6;6;
76661;PMS5003;65579;45.534;6.212;2023-04-03T10:20:23;10;7;
76661;PMS5003;65579;45.534;6.212;2023-04-03T10:22:44;7;7;
76661;PMS5003;65579;45.534;6.212;2023-04-03T10:25:11;7;7;
76661;PMS5003;65579;45.534;6.212;2023-04-03T10:27:36;5;5;
76661;PMS5003;65579;45.534;6.212;2023-04-03T10:29:59;6;6;
76661;PMS5003;65579;45.534;6.212;2023-04-03T10:32:27;5;5;
76661;PMS5003;65579;45.534;6.212;2023-04-03T10:34:48;5;5;
76661;PMS5003;65579;45.534;6.212;2023-04-03T10:37:14;5;5;
76661;PMS5003;65579;45.534;6.212;2023-04-03T10:39:39;5;5;
76661;PMS5003;65579;45.534;6.212;2023-04-03T10:42:05;4;4;
76661;PMS5003;65579;45.534;6.212;2023-04-03T10:44:31;6;6;
76661;PMS5003;65579;45.534;6.212;2023-04-03T10:46:55;3;3;
76661;PMS5003;65579;45.534;6.212;2023-04-03T10:49:22;7;6;
76661;PMS5003;65579;45.534;6.212;2023-04-03T10:51:45;6;6;
76661;PMS5003;65579;45.534;6.212;2023-04-03T10:54:11;5;3;
76661;PMS5003;65579;45.534;6.212;2023-04-03T10:56:36;7;7;
76661;PMS5003;65579;45.534;6.212;2023-04-03T10:59:02;7;7;
76661;PMS5003;65579;45.534;6.212;2023-04-03T11:01:26;5;5;
76661;PMS5003;65579;45.534;6.212;2023-04-03T11:03:51;5;5;
76661;PMS5003;65579;45.534;6.212;2023-04-03T11:06:15;6;6;
76661;PMS5003;65579;45.534;6.212;2023-04-03T11:08:42;5;4;
76661;PMS5003;65579;45.534;6.212;2023-04-03T11:11:06;5;5;
76661;PMS5003;65579;45.534;6.212;2023-04-03T11:13:32;4;4;
76661;PMS5003;65579;45.534;6.212;2023-04-03T11:15:55;5;5;
76661;PMS5003;65579;45.534;6.212;2023-04-03T11:18:21;4;4;
76661;PMS5003;65579;45.534;6.212;2023-04-03T11:20:48;4;4;
76661;PMS5003;65579;45.534;6.212;2023-04-03T11:23:12;3;3;
76661;PMS5003;65579;45.534;6.212;2023-04-03T11:25:36;7;5;
76661;PMS5003;65579;45.534;6.212;2023-04-03T11:28:02;4;4;
76661;PMS5003;65579;45.534;6.212;2023-04-03T11:30:28;4;4;
76661;PMS5003;65579;45.534;6.212;2023-04-03T11:33:03;5;5;
76661;PMS5003;65579;45.534;6.212;2023-04-03T11:35:16;3;3;
76661;PMS5003;65579;45.534;6.212;2023-04-03T11:37:43;3;3;
76661;PMS5003;65579;45.534;6.212;2023-04-03T11:40:07;5;5;
76661;PMS5003;65579;45.534;6.212;2023-04-03T11:42:33;4;4;
76661;PMS5003;65579;45.534;6.212;2023-04-03T11:49:57;3;3;
76661;PMS5003;65579;45.534;6.212;2023-04-03T11:52:12;4;4;
76661;PMS5003;65579;45.534;6.212;2023-04-03T11:54:44;4;4;
76661;PMS5003;65579;45.534;6.212;2023-04-03T11:59:28;3;3;
76661;PMS5003;65579;45.534;6.212;2023-04-03T12:01:53;4;4;
76661;PMS5003;65579;45.534;6.212;2023-04-03T12:04:18;4;4;
76661;PMS5003;65579;45.534;6.212;2023-04-03T12:11:33;5;5;
76661;PMS5003;65579;45.534;6.212;2023-04-03T12:14:02;4;4;
76661;PMS5003;65579;45.534;6.212;2023-04-03T12:16:24;4;4;
76661;PMS5003;65579;45.534;6.212;2023-04-03T12:18:55;4;3;
76661;PMS5003;65579;45.534;6.212;2023-04-03T12:21:14;4;4;
76661;PMS5003;65579;45.534;6.212;2023-04-03T12:26:06;6;5;
76661;PMS5003;65579;45.534;6.212;2023-04-03T12:28:29;4;4;
76661;PMS5003;65579;45.534;6.212;2023-04-03T12:30:54;4;3;
76661;PMS5003;65579;45.534;6.212;2023-04-03T12:33:22;4;4;
76661;PMS5003;65579;45.534;6.212;2023-04-03T12:35:48;3;3;
76661;PMS5003;65579;45.534;6.212;2023-04-03T12:38:17;4;4;
76661;PMS5003;65579;45.534;6.212;2023-04-03T12:40:36;3;3;
76661;PMS5003;65579;45.534;6.212;2023-04-03T12:43:09;3;3;
76661;PMS5003;65579;45.534;6.212;2023-04-03T12:45:25;2;2;
76661;PMS5003;65579;45.534;6.212;2023-04-03T12:47:51;5;5;
76661;PMS5003;65579;45.534;6.212;2023-04-03T12:50:18;5;5;
76661;PMS5003;65579;45.534;6.212;2023-04-03T12:52:41;5;5;
76661;PMS5003;65579;45.534;6.212;2023-04-03T12:55:07;3;3;
76661;PMS5003;65579;45.534;6.212;2023-04-03T12:57:31;6;5;
76661;PMS5003;65579;45.534;6.212;2023-04-03T12:59:56;4;4;
76661;PMS5003;65579;45.534;6.212;2023-04-03T13:02:22;4;4;
76661;PMS5003;65579;45.534;6.212;2023-04-03T13:04:46;3;3;
76661;PMS5003;65579;45.534;6.212;2023-04-03T13:09:37;4;4;
76661;PMS5003;65579;45.534;6.212;2023-04-03T13:12:03;4;4;
76661;PMS5003;65579;45.534;6.212;2023-04-03T13:14:28;4;4;
76661;PMS5003;65579;45.534;6.212;2023-04-03T13:16:53;5;5;
76661;PMS5003;65579;45.534;6.212;2023-04-03T13:19:17;4;4;
76661;PMS5003;65579;45.534;6.212;2023-04-03T13:21:43;5;4;
76661;PMS5003;65579;45.534;6.212;2023-04-03T13:24:08;6;6;
76661;PMS5003;65579;45.534;6.212;2023-04-03T13:26:33;4;4;
76661;PMS5003;65579;45.534;6.212;2023-04-03T13:28:59;3;3;
76661;PMS5003;65579;45.534;6.212;2023-04-03T13:31:25;4;4;
76661;PMS5003;65579;45.534;6.212;2023-04-03T13:33:53;4;4;
76661;PMS5003;65579;45.534;6.212;2023-04-03T13:36:16;4;4;
76661;PMS5003;65579;45.534;6.212;2023-04-03T13:38:38;3;3;
76661;PMS5003;65579;45.534;6.212;2023-04-03T13:41:05;4;4;
76661;PMS5003;65579;45.534;6.212;2023-04-03T13:43:30;6;5;
76661;PMS5003;65579;45.534;6.212;2023-04-03T13:45:57;5;5;
76661;PMS5003;65579;45.534;6.212;2023-04-03T13:48:19;4;3;
76661;PMS5003;65579;45.534;6.212;2023-04-03T13:50:51;4;4;
76661;PMS5003;65579;45.534;6.212;2023-04-03T13:53:11;6;5;
76661;PMS5003;65579;45.534;6.212;2023-04-03T13:55:36;4;4;
76661;PMS5003;65579;45.534;6.212;2023-04-03T13:58:01;4;3;
76661;PMS5003;65579;45.534;6.212;2023-04-03T14:00:28;4;4;
76661;PMS5003;65579;45.534;6.212;2023-04-03T14:02:51;4;4;
76661;PMS5003;65579;45.534;6.212;2023-04-03T14:05:16;2;2;
76661;PMS5003;65579;45.534;6.212;2023-04-03T14:07:41;3;3;
76661;PMS5003;65579;45.534;6.212;2023-04-03T14:10:06;3;3;
76661;PMS5003;65579;45.534;6.212;2023-04-03T14:12:32;5;5;
76661;PMS5003;65579;45.534;6.212;2023-04-03T14:14:56;4;4;
76661;PMS5003;65579;45.534;6.212;2023-04-03T14:17:23;5;5;
76661;PMS5003;65579;45.534;6.212;2023-04-03T14:19:47;5;5;
76661;PMS5003;65579;45.534;6.212;2023-04-03T14:22:15;2;2;
76661;PMS5003;65579;45.534;6.212;2023-04-03T14:24:37;4;4;
76661;PMS5003;65579;45.534;6.212;2023-04-03T14:27:02;4;4;
76661;PMS5003;65579;45.534;6.212;2023-04-03T14:29:27;3;3;
76661;PMS5003;65579;45.534;6.212;2023-04-03T14:31:53;3;3;
76661;PMS5003;65579;45.534;6.212;2023-04-03T14:34:18;5;5;
76661;PMS5003;65579;45.534;6.212;2023-04-03T14:36:43;4;4;
76661;PMS5003;65579;45.534;6.212;2023-04-03T14:39:10;4;4;
76661;PMS5003;65579;45.534;6.212;2023-04-03T14:41:33;3;3;
76661;PMS5003;65579;45.534;6.212;2023-04-03T14:43:58;4;4;
76661;PMS5003;65579;45.534;6.212;2023-04-03T14:46:26;4;4;
76661;PMS5003;65579;45.534;6.212;2023-04-03T14:48:49;5;5;
76661;PMS5003;65579;45.534;6.212;2023-04-03T14:51:14;7;6;
76661;PMS5003;65579;45.534;6.212;2023-04-03T14:53:39;3;3;
76661;PMS5003;65579;45.534;6.212;2023-04-03T14:56:05;3;1;
76661;PMS5003;65579;45.534;6.212;2023-04-03T14:58:29;4;4;
76661;PMS5003;65579;45.534;6.212;2023-04-03T15:00:54;4;3;
76661;PMS5003;65579;45.534;6.212;2023-04-03T15:03:20;3;3;
76661;PMS5003;65579;45.534;6.212;2023-04-03T15:05:45;4;4;
76661;PMS5003;65579;45.534;6.212;2023-04-03T15:08:17;4;4;
76661;PMS5003;65579;45.534;6.212;2023-04-03T15:10:35;4;4;
76661;PMS5003;65579;45.534;6.212;2023-04-03T15:13:00;5;5;
76661;PMS5003;65579;45.534;6.212;2023-04-03T15:15:27;4;4;
76661;PMS5003;65579;45.534;6.212;2023-04-03T15:17:51;3;3;
76661;PMS5003;65579;45.534;6.212;2023-04-03T15:20:17;3;3;
76661;PMS5003;65579;45.534;6.212;2023-04-03T15:22:41;7;6;
76661;PMS5003;65579;45.534;6.212;2023-04-03T15:25:06;3;3;
76661;PMS5003;65579;45.534;6.212;2023-04-03T15:27:31;5;5;
76661;PMS5003;65579;45.534;6.212;2023-04-03T15:29:56;6;4;
76661;PMS5003;65579;45.534;6.212;2023-04-03T15:32:21;3;3;
76661;PMS5003;65579;45.534;6.212;2023-04-03T15:34:47;3;3;
76661;PMS5003;65579;45.534;6.212;2023-04-03T15:37:12;6;4;
76661;PMS5003;65579;45.534;6.212;2023-04-03T15:39:37;6;6;
76661;PMS5003;65579;45.534;6.212;2023-04-03T15:42:02;4;4;
76661;PMS5003;65579;45.534;6.212;2023-04-03T15:44:27;4;4;
76661;PMS5003;65579;45.534;6.212;2023-04-03T15:46:52;4;4;
76661;PMS5003;65579;45.534;6.212;2023-04-03T15:49:20;6;6;
76661;PMS5003;65579;45.534;6.212;2023-04-03T15:51:43;5;5;
76661;PMS5003;65579;45.534;6.212;2023-04-03T15:54:08;5;5;
76661;PMS5003;65579;45.534;6.212;2023-04-03T15:56:34;6;6;
76661;PMS5003;65579;45.534;6.212;2023-04-03T15:58:59;4;4;
76661;PMS5003;65579;45.534;6.212;2023-04-03T16:01:24;10;10;
76661;PMS5003;65579;45.534;6.212;2023-04-03T16:03:49;5;5;
76661;PMS5003;65579;45.534;6.212;2023-04-03T16:06:15;6;6;
76661;PMS5003;65579;45.534;6.212;2023-04-03T16:08:41;6;6;
76661;PMS5003;65579;45.534;6.212;2023-04-03T16:11:05;3;3;
76661;PMS5003;65579;45.534;6.212;2023-04-03T16:13:31;7;7;
76661;PMS5003;65579;45.534;6.212;2023-04-03T16:15:56;5;5;
76661;PMS5003;65579;45.534;6.212;2023-04-03T16:18:21;5;4;
76661;PMS5003;65579;45.534;6.212;2023-04-03T16:20:47;6;6;
76661;PMS5003;65579;45.534;6.212;2023-04-03T16:23:12;8;6;
76661;PMS5003;65579;45.534;6.212;2023-04-03T16:25:38;6;6;
76661;PMS5003;65579;45.534;6.212;2023-04-03T16:28:03;5;5;
76661;PMS5003;65579;45.534;6.212;2023-04-03T16:30:29;11;11;
76661;PMS5003;65579;45.534;6.212;2023-04-03T16:32:54;6;5;
76661;PMS5003;65579;45.534;6.212;2023-04-03T16:35:19;8;8;
76661;PMS5003;65579;45.534;6.212;2023-04-03T16:37:45;8;8;
76661;PMS5003;65579;45.534;6.212;2023-04-03T16:40:09;9;9;
76661;PMS5003;65579;45.534;6.212;2023-04-03T16:42:35;7;7;
76661;PMS5003;65579;45.534;6.212;2023-04-03T16:45:00;8;8;
76661;PMS5003;65579;45.534;6.212;2023-04-03T16:47:26;12;9;
76661;PMS5003;65579;45.534;6.212;2023-04-03T16:49:51;8;8;